sensor_id;sensor_type;location;lat;lon;timestamp;temperature;humidity
12684;DHT22;6406;59.312;18.058;2022-11-02T00:02:24;10.00;99.90
12684;DHT22;6406;59.312;18.058;2022-11-02T00:04:52;10.00;99.90
12684;DHT22;6406;59.312;18.058;2022-11-02T00:07:19;10.00;99.90
12684;DHT22;6406;59.312;18.058;2022-11-02T00:09:46;10.10;99.90
12684;DHT22;6406;59.312;18.058;2022-11-02T00:12:13;10.10;99.90
12684;DHT22;6406;59.312;18.058;2022-11-02T00:14:40;10.10;99.90
12684;DHT22;6406;59.312;18.058;2022-11-02T00:17:07;10.10;99.90
12684;DHT22;6406;59.312;18.058;2022-11-02T00:19:34;10.10;99.90
12684;DHT22;6406;59.312;18.058;2022-11-02T00:22:03;10.10;99.90
12684;DHT22;6406;59.312;18.058;2022-11-02T00:24:32;10.10;99.90
12684;DHT22;6406;59.312;18.058;2022-11-02T00:26:59;10.10;99.90
12684;DHT22;6406;59.312;18.058;2022-11-02T00:29:27;10.10;99.90
12684;DHT22;6406;59.312;18.058;2022-11-02T00:31:54;10.10;99.90
12684;DHT22;6406;59.312;18.058;2022-11-02T00:34:21;10.10;99.90
12684;DHT22;6406;59.312;18.058;2022-11-02T00:36:48;10.10;99.90
12684;DHT22;6406;59.312;18.058;2022-11-02T00:39:17;10.20;99.90
12684;DHT22;6406;59.312;18.058;2022-11-02T00:41:44;10.20;99.90
12684;DHT22;6406;59.312;18.058;2022-11-02T00:44:11;10.20;99.90
12684;DHT22;6406;59.312;18.058;2022-11-02T00:46:38;10.20;99.90
12684;DHT22;6406;59.312;18.058;2022-11-02T00:49:05;8.90;99.90
12684;DHT22;6406;59.312;18.058;2022-11-02T00:51:32;10.20;99.90
12684;DHT22;6406;59.312;18.058;2022-11-02T00:53:59;10.20;99.90
12684;DHT22;6406;59.312;18.058;2022-11-02T00:56:27;10.20;99.90
12684;DHT22;6406;59.312;18.058;2022-11-02T00:58:54;10.20;99.90
12684;DHT22;6406;59.312;18.058;2022-11-02T01:01:22;10.20;99.90
12684;DHT22;6406;59.312;18.058;2022-11-02T01:03:49;10.30;99.90
12684;DHT22;6406;59.312;18.058;2022-11-02T01:06:16;10.20;99.90
12684;DHT22;6406;59.312;18.058;2022-11-02T01:08:43;10.30;99.90
12684;DHT22;6406;59.312;18.058;2022-11-02T01:11:12;10.40;99.90
12684;DHT22;6406;59.312;18.058;2022-11-02T01:13:41;10.30;99.90
12684;DHT22;6406;59.312;18.058;2022-11-02T01:16:09;10.30;99.90
12684;DHT22;6406;59.312;18.058;2022-11-02T01:18:37;10.20;99.90
12684;DHT22;6406;59.312;18.058;2022-11-02T01:21:04;10.60;99.90
12684;DHT22;6406;59.312;18.058;2022-11-02T01:23:32;10.30;99.90
12684;DHT22;6406;59.312;18.058;2022-11-02T01:26:02;10.40;99.90
12684;DHT22;6406;59.312;18.058;2022-11-02T01:28:29;10.30;99.90
12684;DHT22;6406;59.312;18.058;2022-11-02T01:30:58;10.30;99.90
12684;DHT22;6406;59.312;18.058;2022-11-02T01:33:25;10.40;99.90
12684;DHT22;6406;59.312;18.058;2022-11-02T01:35:53;10.40;99.90
12684;DHT22;6406;59.312;18.058;2022-11-02T01:38:20;10.40;99.90
12684;DHT22;6406;59.312;18.058;2022-11-02T01:40:47;10.40;99.90
12684;DHT22;6406;59.312;18.058;2022-11-02T01:43:23;10.40;99.90
12684;DHT22;6406;59.312;18.058;2022-11-02T01:45:53;10.30;99.90
12684;DHT22;6406;59.312;18.058;2022-11-02T01:48:27;10.40;99.90
12684;DHT22;6406;59.312;18.058;2022-11-02T01:50:56;10.40;99.90
12684;DHT22;6406;59.312;18.058;2022-11-02T01:53:26;10.40;99.90
12684;DHT22;6406;59.312;18.058;2022-11-02T01:55:53;10.50;99.90
12684;DHT22;6406;59.312;18.058;2022-11-02T01:58:21;10.50;99.90
12684;DHT22;6406;59.312;18.058;2022-11-02T02:00:48;10.50;99.90
12684;DHT22;6406;59.312;18.058;2022-11-02T02:03:16;10.60;99.90
12684;DHT22;6406;59.312;18.058;2022-11-02T02:05:49;10.40;99.90
12684;DHT22;6406;59.312;18.058;2022-11-02T02:08:19;10.80;99.90
12684;DHT22;6406;59.312;18.058;2022-11-02T02:10:48;10.40;99.90
12684;DHT22;6406;59.312;18.058;2022-11-02T02:13:15;10.50;99.90
12684;DHT22;6406;59.312;18.058;2022-11-02T02:15:48;10.50;99.90
12684;DHT22;6406;59.312;18.058;2022-11-02T02:18:21;10.50;99.90
12684;DHT22;6406;59.312;18.058;2022-11-02T02:21:11;10.50;99.90
12684;DHT22;6406;59.312;18.058;2022-11-02T02:24:05;10.50;99.90
12684;DHT22;6406;59.312;18.058;2022-11-02T02:26:57;9.50;99.90
12684;DHT22;6406;59.312;18.058;2022-11-02T02:29:28;9.80;99.90
12684;DHT22;6406;59.312;18.058;2022-11-02T02:32:01;10.50;99.90
12684;DHT22;6406;59.312;18.058;2022-11-02T02:34:36;10.50;99.90
12684;DHT22;6406;59.312;18.058;2022-11-02T02:37:08;8.90;99.90
12684;DHT22;6406;59.312;18.058;2022-11-02T02:39:42;10.60;99.90
12684;DHT22;6406;59.312;18.058;2022-11-02T02:42:18;10.50;99.90
12684;DHT22;6406;59.312;18.058;2022-11-02T02:44:56;10.50;99.90
12684;DHT22;6406;59.312;18.058;2022-11-02T02:47:26;10.80;99.90
12684;DHT22;6406;59.312;18.058;2022-11-02T02:49:58;10.60;99.90
12684;DHT22;6406;59.312;18.058;2022-11-02T02:52:31;10.60;99.90
12684;DHT22;6406;59.312;18.058;2022-11-02T02:55:00;10.50;99.90
12684;DHT22;6406;59.312;18.058;2022-11-02T02:57:30;10.60;99.90
12684;DHT22;6406;59.312;18.058;2022-11-02T03:00:00;10.50;99.90
12684;DHT22;6406;59.312;18.058;2022-11-02T03:02:31;10.60;99.90
12684;DHT22;6406;59.312;18.058;2022-11-02T03:04:58;10.50;99.90
12684;DHT22;6406;59.312;18.058;2022-11-02T03:07:28;10.60;99.90
12684;DHT22;6406;59.312;18.058;2022-11-02T03:10:05;10.60;99.90
12684;DHT22;6406;59.312;18.058;2022-11-02T03:12:46;10.70;99.90
12684;DHT22;6406;59.312;18.058;2022-11-02T03:15:21;10.70;99.90
12684;DHT22;6406;59.312;18.058;2022-11-02T03:18:00;10.50;99.90
12684;DHT22;6406;59.312;18.058;2022-11-02T03:20:34;10.60;99.90
12684;DHT22;6406;59.312;18.058;2022-11-02T03:23:13;10.80;99.90
12684;DHT22;6406;59.312;18.058;2022-11-02T03:25:49;10.70;99.90
12684;DHT22;6406;59.312;18.058;2022-11-02T03:28:27;10.70;99.90
12684;DHT22;6406;59.312;18.058;2022-11-02T03:31:02;10.70;99.90
12684;DHT22;6406;59.312;18.058;2022-11-02T03:33:35;10.70;99.90
12684;DHT22;6406;59.312;18.058;2022-11-02T03:36:08;10.70;99.90
12684;DHT22;6406;59.312;18.058;2022-11-02T03:38:42;10.70;99.90
12684;DHT22;6406;59.312;18.058;2022-11-02T03:41:10;10.80;99.90
12684;DHT22;6406;59.312;18.058;2022-11-02T03:43:41;10.80;99.90
12684;DHT22;6406;59.312;18.058;2022-11-02T03:46:10;10.80;99.90
12684;DHT22;6406;59.312;18.058;2022-11-02T03:48:41;10.20;99.90
12684;DHT22;6406;59.312;18.058;2022-11-02T03:51:12;10.70;99.90
12684;DHT22;6406;59.312;18.058;2022-11-02T03:53:45;10.70;99.90
12684;DHT22;6406;59.312;18.058;2022-11-02T03:56:18;10.70;99.90
12684;DHT22;6406;59.312;18.058;2022-11-02T03:58:46;10.70;99.90
12684;DHT22;6406;59.312;18.058;2022-11-02T04:01:17;10.70;99.90
12684;DHT22;6406;59.312;18.058;2022-11-02T04:03:45;10.70;99.90
12684;DHT22;6406;59.312;18.058;2022-11-02T04:06:13;10.70;99.90
12684;DHT22;6406;59.312;18.058;2022-11-02T04:08:43;10.70;99.90
12684;DHT22;6406;59.312;18.058;2022-11-02T04:11:10;10.70;99.90
12684;DHT22;6406;59.312;18.058;2022-11-02T04:13:55;10.70;99.90
12684;DHT22;6406;59.312;18.058;2022-11-02T04:16:41;10.70;99.90
12684;DHT22;6406;59.312;18.058;2022-11-02T04:19:08;10.70;99.90
12684;DHT22;6406;59.312;18.058;2022-11-02T04:21:52;10.70;99.90
12684;DHT22;6406;59.312;18.058;2022-11-02T04:24:37;10.70;99.90
12684;DHT22;6406;59.312;18.058;2022-11-02T04:27:21;10.70;99.90
12684;DHT22;6406;59.312;18.058;2022-11-02T04:29:48;10.70;99.90
12684;DHT22;6406;59.312;18.058;2022-11-02T04:32:16;10.70;99.90
12684;DHT22;6406;59.312;18.058;2022-11-02T04:35:05;10.70;99.90
12684;DHT22;6406;59.312;18.058;2022-11-02T04:37:37;10.70;99.90
12684;DHT22;6406;59.312;18.058;2022-11-02T04:40:21;10.70;99.90
12684;DHT22;6406;59.312;18.058;2022-11-02T04:42:51;10.70;99.90
12684;DHT22;6406;59.312;18.058;2022-11-02T04:45:18;10.60;99.90
12684;DHT22;6406;59.312;18.058;2022-11-02T04:47:47;10.70;99.90
12684;DHT22;6406;59.312;18.058;2022-11-02T04:50:14;10.60;99.90
12684;DHT22;6406;59.312;18.058;2022-11-02T04:52:41;9.00;99.90
12684;DHT22;6406;59.312;18.058;2022-11-02T04:55:09;10.70;99.90
12684;DHT22;6406;59.312;18.058;2022-11-02T04:57:36;10.60;99.90
12684;DHT22;6406;59.312;18.058;2022-11-02T05:00:04;10.60;99.90
12684;DHT22;6406;59.312;18.058;2022-11-02T05:02:32;10.60;99.90
12684;DHT22;6406;59.312;18.058;2022-11-02T05:05:00;10.60;99.90
12684;DHT22;6406;59.312;18.058;2022-11-02T05:07:27;8.90;99.90
12684;DHT22;6406;59.312;18.058;2022-11-02T05:09:55;10.60;99.90
12684;DHT22;6406;59.312;18.058;2022-11-02T05:12:22;10.70;99.90
12684;DHT22;6406;59.312;18.058;2022-11-02T05:14:49;10.50;99.90
12684;DHT22;6406;59.312;18.058;2022-11-02T05:17:16;10.50;99.90
12684;DHT22;6406;59.312;18.058;2022-11-02T05:19:43;10.50;99.90
12684;DHT22;6406;59.312;18.058;2022-11-02T05:22:12;10.50;99.90
12684;DHT22;6406;59.312;18.058;2022-11-02T05:24:39;10.50;99.90
12684;DHT22;6406;59.312;18.058;2022-11-02T05:27:06;10.60;99.90
12684;DHT22;6406;59.312;18.058;2022-11-02T05:29:35;9.00;99.90
12684;DHT22;6406;59.312;18.058;2022-11-02T05:32:02;10.50;99.90
12684;DHT22;6406;59.312;18.058;2022-11-02T05:34:29;10.50;99.90
12684;DHT22;6406;59.312;18.058;2022-11-02T05:36:56;10.50;99.90
12684;DHT22;6406;59.312;18.058;2022-11-02T05:39:25;10.50;99.90
12684;DHT22;6406;59.312;18.058;2022-11-02T05:41:53;10.70;99.90
12684;DHT22;6406;59.312;18.058;2022-11-02T05:44:20;10.60;99.90
12684;DHT22;6406;59.312;18.058;2022-11-02T05:46:47;10.70;99.90
12684;DHT22;6406;59.312;18.058;2022-11-02T05:49:14;10.50;99.90
12684;DHT22;6406;59.312;18.058;2022-11-02T05:51:42;10.60;99.90
12684;DHT22;6406;59.312;18.058;2022-11-02T05:54:09;10.50;99.90
12684;DHT22;6406;59.312;18.058;2022-11-02T05:56:38;10.50;99.90
12684;DHT22;6406;59.312;18.058;2022-11-02T05:59:05;10.40;99.90
12684;DHT22;6406;59.312;18.058;2022-11-02T06:01:33;10.50;99.90
12684;DHT22;6406;59.312;18.058;2022-11-02T06:04:00;10.50;99.90
12684;DHT22;6406;59.312;18.058;2022-11-02T06:06:28;10.50;99.90
12684;DHT22;6406;59.312;18.058;2022-11-02T06:08:55;10.50;99.90
12684;DHT22;6406;59.312;18.058;2022-11-02T06:11:22;10.50;99.90
12684;DHT22;6406;59.312;18.058;2022-11-02T06:13:51;10.50;99.90
12684;DHT22;6406;59.312;18.058;2022-11-02T06:16:18;10.60;99.90
12684;DHT22;6406;59.312;18.058;2022-11-02T06:18:46;10.50;99.90
12684;DHT22;6406;59.312;18.058;2022-11-02T06:21:13;10.50;99.90
12684;DHT22;6406;59.312;18.058;2022-11-02T06:23:40;10.50;99.90
12684;DHT22;6406;59.312;18.058;2022-11-02T06:26:09;10.50;99.90
12684;DHT22;6406;59.312;18.058;2022-11-02T06:28:37;10.60;99.90
12684;DHT22;6406;59.312;18.058;2022-11-02T06:31:06;10.60;99.90
12684;DHT22;6406;59.312;18.058;2022-11-02T06:33:33;10.60;99.90
12684;DHT22;6406;59.312;18.058;2022-11-02T06:36:01;10.60;99.90
12684;DHT22;6406;59.312;18.058;2022-11-02T06:38:28;9.40;99.90
12684;DHT22;6406;59.312;18.058;2022-11-02T06:40:59;10.70;99.90
12684;DHT22;6406;59.312;18.058;2022-11-02T06:43:26;11.10;99.90
12684;DHT22;6406;59.312;18.058;2022-11-02T06:45:54;10.50;99.90
12684;DHT22;6406;59.312;18.058;2022-11-02T06:48:23;10.60;99.90
12684;DHT22;6406;59.312;18.058;2022-11-02T06:50:51;10.60;99.90
12684;DHT22;6406;59.312;18.058;2022-11-02T06:53:18;10.60;99.90
12684;DHT22;6406;59.312;18.058;2022-11-02T06:55:51;10.60;99.90
12684;DHT22;6406;59.312;18.058;2022-11-02T06:58:19;10.60;99.90
12684;DHT22;6406;59.312;18.058;2022-11-02T07:00:46;10.60;99.90
12684;DHT22;6406;59.312;18.058;2022-11-02T07:03:14;10.60;99.90
12684;DHT22;6406;59.312;18.058;2022-11-02T07:05:49;10.60;99.90
12684;DHT22;6406;59.312;18.058;2022-11-02T07:08:18;10.60;99.90
12684;DHT22;6406;59.312;18.058;2022-11-02T07:10:45;10.60;99.90
12684;DHT22;6406;59.312;18.058;2022-11-02T07:13:13;10.60;99.90
12684;DHT22;6406;59.312;18.058;2022-11-02T07:15:40;10.50;99.90
12684;DHT22;6406;59.312;18.058;2022-11-02T07:18:09;10.50;99.90
12684;DHT22;6406;59.312;18.058;2022-11-02T07:20:37;10.60;99.90
12684;DHT22;6406;59.312;18.058;2022-11-02T07:23:08;10.60;99.90
12684;DHT22;6406;59.312;18.058;2022-11-02T07:25:36;10.70;99.90
12684;DHT22;6406;59.312;18.058;2022-11-02T07:28:03;10.30;99.90
12684;DHT22;6406;59.312;18.058;2022-11-02T07:30:32;10.60;99.90
12684;DHT22;6406;59.312;18.058;2022-11-02T07:33:00;10.60;99.90
12684;DHT22;6406;59.312;18.058;2022-11-02T07:35:28;10.60;99.90
12684;DHT22;6406;59.312;18.058;2022-11-02T07:37:56;10.60;99.90
12684;DHT22;6406;59.312;18.058;2022-11-02T07:40:25;10.70;99.90
12684;DHT22;6406;59.312;18.058;2022-11-02T07:42:53;10.60;99.90
12684;DHT22;6406;59.312;18.058;2022-11-02T07:45:23;11.30;99.90
12684;DHT22;6406;59.312;18.058;2022-11-02T07:47:51;10.70;99.90
12684;DHT22;6406;59.312;18.058;2022-11-02T07:50:20;10.80;99.90
12684;DHT22;6406;59.312;18.058;2022-11-02T07:52:49;10.70;99.90
12684;DHT22;6406;59.312;18.058;2022-11-02T07:55:18;10.70;99.90
12684;DHT22;6406;59.312;18.058;2022-11-02T07:57:56;10.70;99.90
12684;DHT22;6406;59.312;18.058;2022-11-02T08:00:24;10.80;99.90
12684;DHT22;6406;59.312;18.058;2022-11-02T08:02:57;10.80;99.90
12684;DHT22;6406;59.312;18.058;2022-11-02T08:05:30;10.70;99.90
12684;DHT22;6406;59.312;18.058;2022-11-02T08:08:10;10.80;99.90
12684;DHT22;6406;59.312;18.058;2022-11-02T08:10:41;10.70;99.90
12684;DHT22;6406;59.312;18.058;2022-11-02T08:13:13;9.50;99.90
12684;DHT22;6406;59.312;18.058;2022-11-02T08:15:48;10.90;99.90
12684;DHT22;6406;59.312;18.058;2022-11-02T08:18:18;10.80;99.90
12684;DHT22;6406;59.312;18.058;2022-11-02T08:20:46;10.90;99.90
12684;DHT22;6406;59.312;18.058;2022-11-02T08:23:14;10.80;99.90
12684;DHT22;6406;59.312;18.058;2022-11-02T08:25:43;11.10;99.90
12684;DHT22;6406;59.312;18.058;2022-11-02T08:28:14;10.70;99.90
12684;DHT22;6406;59.312;18.058;2022-11-02T08:30:42;10.80;99.90
12684;DHT22;6406;59.312;18.058;2022-11-02T08:33:11;10.80;99.90
12684;DHT22;6406;59.312;18.058;2022-11-02T08:35:40;11.30;99.90
12684;DHT22;6406;59.312;18.058;2022-11-02T08:38:09;10.90;99.90
12684;DHT22;6406;59.312;18.058;2022-11-02T08:40:37;10.90;99.90
12684;DHT22;6406;59.312;18.058;2022-11-02T08:43:05;10.80;99.90
12684;DHT22;6406;59.312;18.058;2022-11-02T08:45:35;10.80;99.90
12684;DHT22;6406;59.312;18.058;2022-11-02T08:48:03;11.20;99.90
12684;DHT22;6406;59.312;18.058;2022-11-02T08:50:31;10.90;99.90
12684;DHT22;6406;59.312;18.058;2022-11-02T08:52:58;10.90;99.90
12684;DHT22;6406;59.312;18.058;2022-11-02T08:55:25;11.00;99.90
12684;DHT22;6406;59.312;18.058;2022-11-02T08:57:56;10.90;99.90
12684;DHT22;6406;59.312;18.058;2022-11-02T09:00:25;11.00;99.90
12684;DHT22;6406;59.312;18.058;2022-11-02T09:03:03;11.00;99.90
12684;DHT22;6406;59.312;18.058;2022-11-02T09:05:36;11.10;99.90
12684;DHT22;6406;59.312;18.058;2022-11-02T09:08:05;11.30;99.90
12684;DHT22;6406;59.312;18.058;2022-11-02T09:10:36;11.10;99.90
12684;DHT22;6406;59.312;18.058;2022-11-02T09:13:09;11.20;99.90
12684;DHT22;6406;59.312;18.058;2022-11-02T09:15:40;8.20;99.90
12684;DHT22;6406;59.312;18.058;2022-11-02T09:18:10;11.90;99.90
12684;DHT22;6406;59.312;18.058;2022-11-02T09:20:43;9.90;99.90
12684;DHT22;6406;59.312;18.058;2022-11-02T09:23:11;11.40;99.90
12684;DHT22;6406;59.312;18.058;2022-11-02T09:25:46;11.40;99.90
12684;DHT22;6406;59.312;18.058;2022-11-02T09:28:13;11.30;99.90
12684;DHT22;6406;59.312;18.058;2022-11-02T09:30:52;11.30;99.90
12684;DHT22;6406;59.312;18.058;2022-11-02T09:33:22;11.40;99.90
12684;DHT22;6406;59.312;18.058;2022-11-02T09:35:50;11.40;99.90
12684;DHT22;6406;59.312;18.058;2022-11-02T09:38:17;11.40;99.90
12684;DHT22;6406;59.312;18.058;2022-11-02T09:40:48;11.50;99.90
12684;DHT22;6406;59.312;18.058;2022-11-02T09:43:22;11.40;99.90
12684;DHT22;6406;59.312;18.058;2022-11-02T09:45:57;11.50;99.90
12684;DHT22;6406;59.312;18.058;2022-11-02T09:48:32;11.60;99.90
12684;DHT22;6406;59.312;18.058;2022-11-02T09:51:03;11.80;99.90
12684;DHT22;6406;59.312;18.058;2022-11-02T09:53:38;11.80;99.90
12684;DHT22;6406;59.312;18.058;2022-11-02T09:56:09;11.00;99.90
12684;DHT22;6406;59.312;18.058;2022-11-02T09:58:38;11.60;99.90
12684;DHT22;6406;59.312;18.058;2022-11-02T10:01:18;11.60;99.90
12684;DHT22;6406;59.312;18.058;2022-11-02T10:04:00;10.50;99.90
12684;DHT22;6406;59.312;18.058;2022-11-02T10:06:28;11.50;99.90
12684;DHT22;6406;59.312;18.058;2022-11-02T10:09:00;11.60;99.90
12684;DHT22;6406;59.312;18.058;2022-11-02T10:11:38;11.70;99.90
12684;DHT22;6406;59.312;18.058;2022-11-02T10:14:14;11.70;99.90
12684;DHT22;6406;59.312;18.058;2022-11-02T10:16:46;11.60;99.90
12684;DHT22;6406;59.312;18.058;2022-11-02T10:19:19;11.70;99.90
12684;DHT22;6406;59.312;18.058;2022-11-02T10:21:48;11.70;99.90
12684;DHT22;6406;59.312;18.058;2022-11-02T10:24:23;11.80;99.90
12684;DHT22;6406;59.312;18.058;2022-11-02T10:26:55;11.90;99.90
12684;DHT22;6406;59.312;18.058;2022-11-02T10:29:33;10.40;99.90
12684;DHT22;6406;59.312;18.058;2022-11-02T10:32:04;9.60;99.90
12684;DHT22;6406;59.312;18.058;2022-11-02T10:34:33;11.90;82.30
12684;DHT22;6406;59.312;18.058;2022-11-02T10:37:17;12.20;72.10
12684;DHT22;6406;59.312;18.058;2022-11-02T10:40:00;12.00;84.80
12684;DHT22;6406;59.312;18.058;2022-11-02T10:42:51;12.10;77.90
12684;DHT22;6406;59.312;18.058;2022-11-02T10:45:47;12.10;71.90
12684;DHT22;6406;59.312;18.058;2022-11-02T10:48:27;12.10;38.00
12684;DHT22;6406;59.312;18.058;2022-11-02T10:51:03;12.10;24.80
12684;DHT22;6406;59.312;18.058;2022-11-02T10:53:34;10.60;53.80
12684;DHT22;6406;59.312;18.058;2022-11-02T10:56:09;12.10;52.60
12684;DHT22;6406;59.312;18.058;2022-11-02T10:58:42;12.10;57.30
12684;DHT22;6406;59.312;18.058;2022-11-02T11:01:14;11.60;42.90
12684;DHT22;6406;59.312;18.058;2022-11-02T11:03:57;12.50;51.50
12684;DHT22;6406;59.312;18.058;2022-11-02T11:06:29;12.40;23.10
12684;DHT22;6406;59.312;18.058;2022-11-02T11:09:03;12.20;23.90
12684;DHT22;6406;59.312;18.058;2022-11-02T11:11:33;13.30;40.70
12684;DHT22;6406;59.312;18.058;2022-11-02T11:14:03;12.20;25.40
12684;DHT22;6406;59.312;18.058;2022-11-02T11:16:36;12.10;32.40
12684;DHT22;6406;59.312;18.058;2022-11-02T11:19:17;12.10;35.30
12684;DHT22;6406;59.312;18.058;2022-11-02T11:21:47;12.30;37.00
12684;DHT22;6406;59.312;18.058;2022-11-02T11:24:24;12.10;57.20
12684;DHT22;6406;59.312;18.058;2022-11-02T11:27:15;12.10;47.30
12684;DHT22;6406;59.312;18.058;2022-11-02T11:29:51;12.10;39.20
12684;DHT22;6406;59.312;18.058;2022-11-02T11:32:21;12.30;54.90
12684;DHT22;6406;59.312;18.058;2022-11-02T11:34:54;9.60;61.50
12684;DHT22;6406;59.312;18.058;2022-11-02T11:37:24;11.90;58.30
12684;DHT22;6406;59.312;18.058;2022-11-02T11:39:56;11.90;58.50
12684;DHT22;6406;59.312;18.058;2022-11-02T11:42:26;11.90;80.60
12684;DHT22;6406;59.312;18.058;2022-11-02T11:45:00;12.00;75.70
12684;DHT22;6406;59.312;18.058;2022-11-02T11:47:34;11.70;89.40
12684;DHT22;6406;59.312;18.058;2022-11-02T11:50:04;11.70;99.90
12684;DHT22;6406;59.312;18.058;2022-11-02T11:52:35;10.20;97.60
12684;DHT22;6406;59.312;18.058;2022-11-02T11:55:20;11.80;95.40
12684;DHT22;6406;59.312;18.058;2022-11-02T11:58:03;11.70;94.70
12684;DHT22;6406;59.312;18.058;2022-11-02T12:00:31;11.70;99.20
12684;DHT22;6406;59.312;18.058;2022-11-02T12:03:03;11.70;99.90
12684;DHT22;6406;59.312;18.058;2022-11-02T12:05:42;11.70;99.90
12684;DHT22;6406;59.312;18.058;2022-11-02T12:08:28;10.80;99.90
12684;DHT22;6406;59.312;18.058;2022-11-02T12:11:16;11.80;95.00
12684;DHT22;6406;59.312;18.058;2022-11-02T12:14:02;11.80;95.60
12684;DHT22;6406;59.312;18.058;2022-11-02T12:16:52;11.80;99.90
12684;DHT22;6406;59.312;18.058;2022-11-02T12:19:31;10.00;99.90
12684;DHT22;6406;59.312;18.058;2022-11-02T12:22:12;11.70;99.90
12684;DHT22;6406;59.312;18.058;2022-11-02T12:24:57;11.70;99.90
12684;DHT22;6406;59.312;18.058;2022-11-02T12:27:35;11.80;99.90
12684;DHT22;6406;59.312;18.058;2022-11-02T12:30:10;10.00;98.70
12684;DHT22;6406;59.312;18.058;2022-11-02T12:32:55;11.90;92.20
12684;DHT22;6406;59.312;18.058;2022-11-02T12:35:42;11.90;82.50
12684;DHT22;6406;59.312;18.058;2022-11-02T12:38:29;11.90;96.70
12684;DHT22;6406;59.312;18.058;2022-11-02T12:41:03;12.30;94.30
12684;DHT22;6406;59.312;18.058;2022-11-02T12:43:41;12.00;95.70
12684;DHT22;6406;59.312;18.058;2022-11-02T12:46:24;12.00;68.30
12684;DHT22;6406;59.312;18.058;2022-11-02T12:49:06;12.10;65.90
12684;DHT22;6406;59.312;18.058;2022-11-02T12:51:41;12.20;51.30
12684;DHT22;6406;59.312;18.058;2022-11-02T12:54:10;12.20;53.60
12684;DHT22;6406;59.312;18.058;2022-11-02T12:56:47;12.20;42.10
12684;DHT22;6406;59.312;18.058;2022-11-02T12:59:21;12.10;39.90
12684;DHT22;6406;59.312;18.058;2022-11-02T13:01:50;12.10;59.30
12684;DHT22;6406;59.312;18.058;2022-11-02T13:04:22;12.00;53.10
12684;DHT22;6406;59.312;18.058;2022-11-02T13:06:53;11.90;75.00
12684;DHT22;6406;59.312;18.058;2022-11-02T13:09:27;12.70;92.60
12684;DHT22;6406;59.312;18.058;2022-11-02T13:12:00;11.90;91.80
12684;DHT22;6406;59.312;18.058;2022-11-02T13:14:33;11.80;99.90
12684;DHT22;6406;59.312;18.058;2022-11-02T13:17:08;11.80;98.10
12684;DHT22;6406;59.312;18.058;2022-11-02T13:19:44;11.80;99.90
12684;DHT22;6406;59.312;18.058;2022-11-02T13:22:14;11.70;99.90
12684;DHT22;6406;59.312;18.058;2022-11-02T13:24:46;11.70;99.90
12684;DHT22;6406;59.312;18.058;2022-11-02T13:27:25;11.70;99.90
12684;DHT22;6406;59.312;18.058;2022-11-02T13:29:55;11.60;99.90
12684;DHT22;6406;59.312;18.058;2022-11-02T13:32:28;11.60;99.90
12684;DHT22;6406;59.312;18.058;2022-11-02T13:34:58;11.60;99.90
12684;DHT22;6406;59.312;18.058;2022-11-02T13:37:33;11.50;99.90
12684;DHT22;6406;59.312;18.058;2022-11-02T13:40:04;11.50;99.90
12684;DHT22;6406;59.312;18.058;2022-11-02T13:42:55;10.40;99.90
12684;DHT22;6406;59.312;18.058;2022-11-02T13:45:37;11.50;99.90
12684;DHT22;6406;59.312;18.058;2022-11-02T13:48:35;11.50;99.90
12684;DHT22;6406;59.312;18.058;2022-11-02T13:51:09;9.40;99.90
12684;DHT22;6406;59.312;18.058;2022-11-02T13:53:46;11.40;99.90
12684;DHT22;6406;59.312;18.058;2022-11-02T13:56:21;11.40;99.90
12684;DHT22;6406;59.312;18.058;2022-11-02T13:58:54;11.50;99.90
12684;DHT22;6406;59.312;18.058;2022-11-02T14:01:23;11.40;99.90
12684;DHT22;6406;59.312;18.058;2022-11-02T14:03:52;11.30;99.90
12684;DHT22;6406;59.312;18.058;2022-11-02T14:06:22;11.30;99.90
12684;DHT22;6406;59.312;18.058;2022-11-02T14:08:53;11.30;99.90
12684;DHT22;6406;59.312;18.058;2022-11-02T14:11:34;11.40;99.90
12684;DHT22;6406;59.312;18.058;2022-11-02T14:14:21;11.30;99.90
12684;DHT22;6406;59.312;18.058;2022-11-02T14:17:12;11.30;99.90
12684;DHT22;6406;59.312;18.058;2022-11-02T14:19:54;11.30;99.90
12684;DHT22;6406;59.312;18.058;2022-11-02T14:22:29;11.20;99.90
12684;DHT22;6406;59.312;18.058;2022-11-02T14:25:16;11.20;99.90
12684;DHT22;6406;59.312;18.058;2022-11-02T14:27:52;11.20;99.90
12684;DHT22;6406;59.312;18.058;2022-11-02T14:33:53;11.50;99.90
12684;DHT22;6406;59.312;18.058;2022-11-02T14:36:47;11.20;99.90
12684;DHT22;6406;59.312;18.058;2022-11-02T14:39:22;11.20;99.90
12684;DHT22;6406;59.312;18.058;2022-11-02T14:42:18;11.40;99.90
12684;DHT22;6406;59.312;18.058;2022-11-02T14:45:28;11.00;99.90
12684;DHT22;6406;59.312;18.058;2022-11-02T14:47:59;11.10;99.90
12684;DHT22;6406;59.312;18.058;2022-11-02T14:50:48;11.00;99.90
12684;DHT22;6406;59.312;18.058;2022-11-02T14:53:25;11.00;99.90
12684;DHT22;6406;59.312;18.058;2022-11-02T14:55:55;10.90;99.90
12684;DHT22;6406;59.312;18.058;2022-11-02T14:58:26;10.90;99.90
12684;DHT22;6406;59.312;18.058;2022-11-02T15:00:57;10.90;99.90
12684;DHT22;6406;59.312;18.058;2022-11-02T15:03:31;10.80;99.90
12684;DHT22;6406;59.312;18.058;2022-11-02T15:06:03;10.80;99.90
12684;DHT22;6406;59.312;18.058;2022-11-02T15:08:33;10.90;99.90
12684;DHT22;6406;59.312;18.058;2022-11-02T15:14:49;10.00;99.90
12684;DHT22;6406;59.312;18.058;2022-11-02T15:20:26;10.70;99.90
12684;DHT22;6406;59.312;18.058;2022-11-02T15:22:59;10.70;99.90
12684;DHT22;6406;59.312;18.058;2022-11-02T15:25:32;10.80;99.90
12684;DHT22;6406;59.312;18.058;2022-11-02T15:28:11;10.90;99.90
12684;DHT22;6406;59.312;18.058;2022-11-02T15:30:42;10.90;99.90
12684;DHT22;6406;59.312;18.058;2022-11-02T15:33:17;10.80;99.90
12684;DHT22;6406;59.312;18.058;2022-11-02T15:35:51;10.90;99.90
12684;DHT22;6406;59.312;18.058;2022-11-02T15:38:26;10.80;99.90
12684;DHT22;6406;59.312;18.058;2022-11-02T15:41:42;10.80;99.90
12684;DHT22;6406;59.312;18.058;2022-11-02T15:47:07;10.70;99.90
12684;DHT22;6406;59.312;18.058;2022-11-02T15:49:52;10.80;99.90
12684;DHT22;6406;59.312;18.058;2022-11-02T15:52:29;10.80;99.90
12684;DHT22;6406;59.312;18.058;2022-11-02T15:55:18;10.80;99.90
12684;DHT22;6406;59.312;18.058;2022-11-02T15:58:13;10.80;99.90
12684;DHT22;6406;59.312;18.058;2022-11-02T16:01:05;10.90;99.90
12684;DHT22;6406;59.312;18.058;2022-11-02T16:03:34;10.90;99.90
12684;DHT22;6406;59.312;18.058;2022-11-02T16:06:02;11.20;99.90
12684;DHT22;6406;59.312;18.058;2022-11-02T16:08:32;10.80;99.90
12684;DHT22;6406;59.312;18.058;2022-11-02T16:11:10;10.80;99.90
12684;DHT22;6406;59.312;18.058;2022-11-02T16:13:44;10.80;99.90
12684;DHT22;6406;59.312;18.058;2022-11-02T16:16:16;10.70;99.90
12684;DHT22;6406;59.312;18.058;2022-11-02T16:18:47;10.70;99.90
12684;DHT22;6406;59.312;18.058;2022-11-02T16:21:17;10.80;99.90